createdAt,value
2019-05-30T00:00:59.983Z,3.45
2019-05-30T00:03:27.306Z,2.55
2019-05-30T00:05:54.368Z,2.65
2019-05-30T00:08:21.439Z,4.47
2019-05-30T00:10:48.511Z,2.70
2019-05-30T00:13:16.040Z,3.08
2019-05-30T00:15:43.259Z,3.20
2019-05-30T00:18:10.515Z,3.67
2019-05-30T00:20:38.880Z,2.80
2019-05-30T00:23:06.007Z,2.50
2019-05-30T00:25:33.082Z,3.50
2019-05-30T00:28:01.366Z,3.12
2019-05-30T00:30:28.735Z,3.12
2019-05-30T00:32:57.163Z,4.60
2019-05-30T00:35:25.325Z,2.50
2019-05-30T00:37:52.343Z,3.92
2019-05-30T00:40:19.825Z,2.75
2019-05-30T00:42:46.838Z,3.02
2019-05-30T00:45:20.736Z,3.33
2019-05-30T00:47:43.690Z,4.65
2019-05-30T00:50:10.814Z,3.67
2019-05-30T00:52:38.172Z,3.40
2019-05-30T00:55:06.833Z,2.67
2019-05-30T00:57:34.060Z,3.33
2019-05-30T01:00:01.098Z,4.15
2019-05-30T01:02:28.848Z,4.53
2019-05-30T01:04:56.937Z,4.97
2019-05-30T01:07:24.547Z,3.67
2019-05-30T01:09:51.577Z,4.60
2019-05-30T01:12:21.492Z,4.78
2019-05-30T01:14:48.468Z,3.55
2019-05-30T01:17:15.449Z,3.60
2019-05-30T01:19:42.813Z,2.62
2019-05-30T01:22:10.990Z,3.20
2019-05-30T01:24:38.179Z,3.65
2019-05-30T01:27:05.855Z,2.80
2019-05-30T01:29:33.073Z,4.42
2019-05-30T01:32:03.642Z,3.12
2019-05-30T01:34:30.738Z,4.20
2019-05-30T01:36:57.817Z,2.60
2019-05-30T01:39:24.786Z,3.60
2019-05-30T01:41:51.808Z,2.50
2019-05-30T01:44:18.870Z,3.62
2019-05-30T01:46:45.790Z,2.77
2019-05-30T01:49:13.041Z,3.45
2019-05-30T01:51:40.000Z,3.72
2019-05-30T01:54:06.969Z,4.25
2019-05-30T01:56:34.027Z,2.92
2019-05-30T01:59:01.061Z,3.25
2019-05-30T02:01:28.183Z,2.95
2019-05-30T02:03:55.248Z,2.60
2019-05-30T02:06:23.241Z,2.75
2019-05-30T02:08:50.227Z,2.85
2019-05-30T02:11:17.369Z,3.90
2019-05-30T02:13:44.590Z,4.12
2019-05-30T02:16:11.953Z,3.12
2019-05-30T02:18:39.379Z,5.40
2019-05-30T02:21:06.349Z,4.15
2019-05-30T02:23:33.442Z,3.27
2019-05-30T02:26:00.470Z,2.90
2019-05-30T02:28:29.007Z,3.30
2019-05-30T02:30:56.027Z,3.85
2019-05-30T02:33:24.336Z,3.30
2019-05-30T02:35:51.451Z,4.15
2019-05-30T02:38:18.835Z,3.30
2019-05-30T02:40:45.896Z,3.58
2019-05-30T02:43:13.003Z,4.42
2019-05-30T02:45:40.355Z,3.17
2019-05-30T02:48:09.667Z,2.85
2019-05-30T02:50:39.429Z,3.85
2019-05-30T02:53:17.645Z,4.62
2019-05-30T02:55:44.759Z,3.12
2019-05-30T02:58:12.844Z,2.90
2019-05-30T03:00:42.245Z,3.72
2019-05-30T03:03:12.366Z,3.75
2019-05-30T03:05:38.598Z,3.67
2019-05-30T03:08:09.283Z,2.83
2019-05-30T03:10:36.279Z,2.92
2019-05-30T03:13:04.081Z,3.45
2019-05-30T03:15:32.692Z,3.47
2019-05-30T03:17:59.836Z,2.52
2019-05-30T03:20:26.941Z,3.20
2019-05-30T03:22:54.101Z,4.00
2019-05-30T03:25:21.420Z,3.52
2019-05-30T03:27:48.679Z,2.62
2019-05-30T03:30:26.432Z,2.70
2019-05-30T03:33:05.172Z,3.33
2019-05-30T03:35:27.875Z,3.17
2019-05-30T03:37:44.103Z,3.33
2019-05-30T03:40:11.583Z,3.45
2019-05-30T03:42:38.691Z,4.35
2019-05-30T03:45:10.751Z,3.27
2019-05-30T03:47:40.217Z,3.47
2019-05-30T03:50:12.569Z,4.03
2019-05-30T03:52:40.875Z,4.17
2019-05-30T03:55:10.029Z,2.33
2019-05-30T03:57:42.337Z,4.53
2019-05-30T04:00:18.587Z,2.37
2019-05-30T04:02:57.977Z,4.62
2019-05-30T04:05:24.999Z,2.55
2019-05-30T04:07:54.903Z,4.00
2019-05-30T04:10:25.083Z,2.50
2019-05-30T04:13:12.105Z,3.25
2019-05-30T04:15:39.688Z,2.92
2019-05-30T04:18:07.065Z,2.33
2019-05-30T04:20:34.725Z,2.27
2019-05-30T04:23:01.796Z,3.25
2019-05-30T04:25:30.056Z,3.00
2019-05-30T04:27:57.408Z,2.67
2019-05-30T04:30:24.525Z,4.47
2019-05-30T04:32:51.603Z,3.40
2019-05-30T04:35:19.287Z,1.95
2019-05-30T04:37:46.516Z,2.50
2019-05-30T04:40:15.260Z,2.15
2019-05-30T04:42:43.080Z,3.08
2019-05-30T04:45:11.816Z,5.87
2019-05-30T04:47:39.343Z,3.22
2019-05-30T04:50:07.526Z,2.15
2019-05-30T04:52:35.105Z,3.30
2019-05-30T04:55:02.205Z,2.50
2019-05-30T04:57:29.199Z,2.72
2019-05-30T04:59:56.380Z,3.20
2019-05-30T05:02:23.669Z,3.10
2019-05-30T05:04:50.873Z,2.42
2019-05-30T05:07:18.026Z,2.08
2019-05-30T05:09:45.027Z,3.90
2019-05-30T05:12:12.078Z,2.37
2019-05-30T05:14:39.133Z,3.60
2019-05-30T05:17:06.120Z,2.08
2019-05-30T05:19:33.084Z,2.80
2019-05-30T05:22:00.056Z,2.17
2019-05-30T05:24:27.101Z,2.35
2019-05-30T05:26:54.560Z,3.90
2019-05-30T05:29:22.024Z,4.10
2019-05-30T05:31:49.122Z,3.37
2019-05-30T05:34:16.663Z,2.00
2019-05-30T05:36:43.733Z,3.25
2019-05-30T05:39:10.858Z,3.20
2019-05-30T05:41:38.106Z,2.50
2019-05-30T05:44:05.391Z,2.27
2019-05-30T05:46:32.607Z,4.05
2019-05-30T05:48:59.966Z,2.60
2019-05-30T05:51:28.936Z,2.40
2019-05-30T05:53:56.398Z,1.85
2019-05-30T05:56:24.749Z,2.65
2019-05-30T05:58:52.228Z,3.90
2019-05-30T06:01:19.537Z,2.98
2019-05-30T06:03:46.602Z,2.67
2019-05-30T06:06:13.679Z,5.12
2019-05-30T06:08:40.671Z,3.77
2019-05-30T06:11:07.668Z,4.35
2019-05-30T06:13:34.628Z,2.98
2019-05-30T06:16:01.567Z,3.42
2019-05-30T06:18:28.573Z,3.60
2019-05-30T06:20:55.560Z,2.50
2019-05-30T06:23:23.665Z,2.25
2019-05-30T06:25:50.896Z,4.08
2019-05-30T06:28:18.096Z,2.45
2019-05-30T06:30:45.084Z,3.98
2019-05-30T06:33:12.124Z,6.37
2019-05-30T06:35:39.523Z,3.67
2019-05-30T06:38:06.510Z,2.65
2019-05-30T06:40:33.692Z,3.60
2019-05-30T06:43:00.728Z,3.72
2019-05-30T06:45:28.427Z,3.45
2019-05-30T06:47:55.505Z,4.78
2019-05-30T06:50:22.646Z,5.75
2019-05-30T06:52:49.645Z,2.98
2019-05-30T06:55:16.970Z,6.25
2019-05-30T06:57:44.755Z,4.30
2019-05-30T07:00:12.487Z,4.37
2019-05-30T07:02:39.549Z,4.85
2019-05-30T07:05:07.675Z,4.03
2019-05-30T07:07:36.259Z,2.67
2019-05-30T07:10:05.471Z,4.00
2019-05-30T07:12:33.210Z,4.70
2019-05-30T07:15:00.692Z,3.45
2019-05-30T07:17:27.680Z,2.45
2019-05-30T07:19:55.694Z,4.70
2019-05-30T07:22:23.566Z,4.28
2019-05-30T07:24:50.658Z,8.73
2019-05-30T07:27:17.736Z,3.45
2019-05-30T07:29:44.687Z,5.10
2019-05-30T07:32:13.465Z,5.50
2019-05-30T07:34:40.695Z,3.15
2019-05-30T07:37:07.770Z,3.33
2019-05-30T07:39:37.298Z,3.42
2019-05-30T07:42:06.585Z,2.37
2019-05-30T07:44:34.991Z,3.30
2019-05-30T07:47:02.383Z,5.15
2019-05-30T07:49:30.394Z,4.85
2019-05-30T07:51:57.887Z,3.00
2019-05-30T07:54:26.869Z,3.22
2019-05-30T07:56:57.273Z,2.90
2019-05-30T07:59:24.743Z,2.90
2019-05-30T08:01:51.829Z,4.67
2019-05-30T08:04:19.474Z,3.55
2019-05-30T08:06:46.593Z,2.62
2019-05-30T08:09:14.432Z,4.15
2019-05-30T08:11:41.795Z,3.98
2019-05-30T08:14:09.223Z,3.30
2019-05-30T08:16:37.451Z,7.12
2019-05-30T08:19:05.236Z,3.50
2019-05-30T08:21:32.833Z,3.85
2019-05-30T08:24:01.341Z,4.35
2019-05-30T08:26:28.508Z,5.08
2019-05-30T08:28:55.495Z,5.55
2019-05-30T08:31:22.573Z,4.08
2019-05-30T08:33:50.340Z,3.37
2019-05-30T08:36:17.459Z,4.58
2019-05-30T08:38:47.974Z,4.65
2019-05-30T08:41:13.553Z,5.87
2019-05-30T08:43:40.551Z,4.40
2019-05-30T08:46:07.538Z,3.72
2019-05-30T08:48:34.612Z,4.28
2019-05-30T08:51:02.118Z,4.83
2019-05-30T08:53:30.192Z,4.78
2019-05-30T08:55:57.370Z,6.67
2019-05-30T08:58:24.459Z,4.95
2019-05-30T09:00:51.492Z,5.08
2019-05-30T09:03:21.327Z,5.90
2019-05-30T09:06:02.982Z,5.60
2019-05-30T09:08:17.779Z,6.03
2019-05-30T09:10:46.406Z,5.85
2019-05-30T09:13:14.711Z,6.50
2019-05-30T09:15:42.987Z,9.53
2019-05-30T09:18:10.411Z,5.10
2019-05-30T09:20:38.428Z,8.78
2019-05-30T09:23:06.296Z,5.37
2019-05-30T09:25:33.285Z,6.87
2019-05-30T09:28:00.236Z,4.95
2019-05-30T09:30:27.405Z,6.53
2019-05-30T09:32:54.919Z,6.12
2019-05-30T09:35:22.173Z,8.23
2019-05-30T09:37:49.565Z,8.63
2019-05-30T09:40:17.963Z,9.35
2019-05-30T09:42:46.669Z,29.80
2019-05-30T09:45:16.989Z,13.78
2019-05-30T09:47:46.673Z,6.25
2019-05-30T09:50:15.752Z,11.10
2019-05-30T09:52:43.542Z,10.45
2019-05-30T09:55:13.435Z,7.03
2019-05-30T09:57:42.357Z,7.50
2019-05-30T10:00:11.912Z,5.50
2019-05-30T10:02:39.367Z,8.75
2019-05-30T10:05:07.128Z,4.95
2019-05-30T10:07:34.671Z,7.53
2019-05-30T10:10:02.202Z,6.30
2019-05-30T10:12:29.251Z,5.12
2019-05-30T10:14:57.124Z,4.80
2019-05-30T10:17:24.524Z,5.60
2019-05-30T10:19:53.035Z,6.50
2019-05-30T10:22:20.454Z,5.05
2019-05-30T10:24:49.044Z,5.60
2019-05-30T10:27:16.566Z,6.42
2019-05-30T10:29:45.860Z,4.62
2019-05-30T10:32:12.791Z,5.28
2019-05-30T10:34:41.112Z,5.70
2019-05-30T10:37:08.757Z,5.47
2019-05-30T10:39:35.859Z,5.50
2019-05-30T10:42:03.253Z,4.67
2019-05-30T10:44:30.684Z,4.70
2019-05-30T10:46:58.918Z,4.95
2019-05-30T10:49:34.610Z,7.00
2019-05-30T10:51:59.123Z,4.62
2019-05-30T10:54:25.394Z,5.40
2019-05-30T10:56:53.738Z,8.28
2019-05-30T10:59:21.491Z,6.70
2019-05-30T11:01:48.586Z,5.17
2019-05-30T11:04:16.097Z,4.10
2019-05-30T11:07:10.625Z,4.35
2019-05-30T11:09:30.123Z,7.67
2019-05-30T11:11:58.613Z,4.15
2019-05-30T11:14:25.888Z,5.05
2019-05-30T11:16:53.847Z,4.47
2019-05-30T11:19:21.248Z,5.05
2019-05-30T11:21:48.299Z,4.45
2019-05-30T11:24:15.538Z,4.37
2019-05-30T11:26:43.338Z,4.08
2019-05-30T11:29:10.839Z,6.35
2019-05-30T11:31:38.389Z,4.25
2019-05-30T11:34:05.809Z,4.80
2019-05-30T11:36:32.847Z,4.72
2019-05-30T11:39:00.614Z,4.40
2019-05-30T11:41:27.699Z,4.70
2019-05-30T11:43:55.589Z,6.03
2019-05-30T11:46:23.161Z,5.72
2019-05-30T11:48:51.559Z,6.12
2019-05-30T11:51:18.693Z,5.87
2019-05-30T11:53:45.894Z,4.60
2019-05-30T11:56:13.048Z,6.20
2019-05-30T11:58:40.247Z,5.65
2019-05-30T12:01:07.449Z,4.83
2019-05-30T12:03:34.474Z,7.90
2019-05-30T12:06:02.237Z,6.30
2019-05-30T12:08:29.325Z,5.92
2019-05-30T12:10:57.150Z,5.42
2019-05-30T12:13:24.342Z,6.58
2019-05-30T12:15:51.435Z,5.92
2019-05-30T12:18:18.659Z,6.03
2019-05-30T12:20:46.008Z,5.80
2019-05-30T12:23:13.192Z,7.72
2019-05-30T12:25:40.387Z,6.53
2019-05-30T12:28:08.117Z,6.58
2019-05-30T12:30:35.377Z,7.72
2019-05-30T12:33:02.689Z,7.20
2019-05-30T12:35:29.772Z,7.65
2019-05-30T12:38:01.588Z,7.42
2019-05-30T12:40:26.367Z,7.17
2019-05-30T12:42:57.360Z,7.05
2019-05-30T12:45:23.772Z,6.90
2019-05-30T12:47:50.740Z,11.38
2019-05-30T12:50:18.652Z,9.98
2019-05-30T12:52:45.641Z,10.13
2019-05-30T12:55:13.310Z,9.55
2019-05-30T12:57:40.375Z,8.83
2019-05-30T13:00:16.624Z,10.00
2019-05-30T13:02:38.306Z,11.30
2019-05-30T13:05:07.209Z,11.00
2019-05-30T13:07:34.441Z,12.90
2019-05-30T13:10:01.828Z,11.75
2019-05-30T13:12:29.079Z,13.30
2019-05-30T13:14:57.428Z,13.22
2019-05-30T13:17:24.948Z,11.57
2019-05-30T13:19:52.058Z,12.68
2019-05-30T13:22:19.357Z,12.90
2019-05-30T13:24:46.452Z,11.73
2019-05-30T13:27:13.661Z,13.85
2019-05-30T13:29:40.652Z,14.38
2019-05-30T13:32:07.783Z,14.68
2019-05-30T13:34:35.103Z,14.03
2019-05-30T13:37:02.990Z,14.47
2019-05-30T13:39:30.123Z,12.73
2019-05-30T13:41:57.495Z,13.85
2019-05-30T13:44:24.752Z,14.50
2019-05-30T13:46:52.230Z,13.22
2019-05-30T13:49:19.412Z,14.63
2019-05-30T13:51:46.400Z,13.80
2019-05-30T13:54:13.755Z,15.53
2019-05-30T13:56:40.839Z,13.30
2019-05-30T13:59:08.093Z,13.70
2019-05-30T14:01:36.324Z,13.88
2019-05-30T14:04:04.733Z,12.73
2019-05-30T14:06:31.851Z,12.28
2019-05-30T14:08:58.811Z,13.40
2019-05-30T14:11:26.078Z,15.60
2019-05-30T14:13:53.120Z,15.78
2019-05-30T14:16:20.396Z,15.18
2019-05-30T14:18:47.467Z,16.07
2019-05-30T14:21:15.071Z,15.43
2019-05-30T14:23:42.833Z,15.40
2019-05-30T14:26:11.472Z,16.12
2019-05-30T14:28:38.759Z,15.30
2019-05-30T14:31:06.809Z,15.15
2019-05-30T14:33:33.996Z,15.78
2019-05-30T14:36:04.577Z,16.23
2019-05-30T14:38:29.980Z,15.28
2019-05-30T14:40:56.982Z,14.35
2019-05-30T14:43:24.230Z,14.80
2019-05-30T14:45:51.571Z,14.87
2019-05-30T14:48:18.584Z,16.35
2019-05-30T14:50:46.037Z,18.37
2019-05-30T14:53:13.164Z,14.60
2019-05-30T14:55:40.421Z,23.67
2019-05-30T14:58:09.095Z,14.15
2019-05-30T15:00:36.338Z,20.00
2019-05-30T15:03:08.367Z,19.77
2019-05-30T15:05:33.022Z,16.27
2019-05-30T15:08:00.002Z,11.50
2019-05-30T15:10:27.215Z,12.43
2019-05-30T15:12:54.296Z,15.83
2019-05-30T15:15:21.683Z,12.33
2019-05-30T15:17:51.087Z,13.25
2019-05-30T15:20:20.999Z,13.78
2019-05-30T15:22:48.077Z,12.78
2019-05-30T15:25:18.091Z,12.75
2019-05-30T15:27:47.461Z,11.95
2019-05-30T15:30:15.132Z,11.43
2019-05-30T15:32:42.126Z,11.93
2019-05-30T15:35:10.843Z,11.78
2019-05-30T15:37:40.749Z,10.25
2019-05-30T15:40:09.010Z,10.15
2019-05-30T15:42:36.630Z,10.78
2019-05-30T15:45:04.656Z,10.50
2019-05-30T15:47:31.787Z,10.00
2019-05-30T15:49:59.160Z,10.03
2019-05-30T15:52:26.555Z,10.25
2019-05-30T15:54:53.672Z,10.58
2019-05-30T15:57:22.174Z,9.35
2019-05-30T15:59:49.220Z,9.80
2019-05-30T16:02:16.415Z,9.38
2019-05-30T16:04:43.743Z,10.65
2019-05-30T16:07:10.714Z,9.88
2019-05-30T16:09:46.790Z,10.00
2019-05-30T16:12:07.041Z,11.57
2019-05-30T16:14:34.038Z,10.60
2019-05-30T16:17:01.187Z,11.90
2019-05-30T16:19:28.462Z,9.45
2019-05-30T16:21:55.439Z,10.35
2019-05-30T16:24:22.399Z,10.00
2019-05-30T16:26:49.855Z,10.43
2019-05-30T16:29:17.721Z,9.88
2019-05-30T16:31:44.832Z,8.83
2019-05-30T16:34:11.874Z,9.93
2019-05-30T16:36:39.916Z,8.93
2019-05-30T16:39:08.183Z,10.53
2019-05-30T16:41:36.050Z,15.53
2019-05-30T16:44:03.870Z,10.63
2019-05-30T16:46:30.982Z,12.53
2019-05-30T16:48:58.683Z,12.80
2019-05-30T16:51:26.948Z,13.35
2019-05-30T16:53:54.608Z,12.58
2019-05-30T16:56:23.564Z,11.43
2019-05-30T16:58:50.775Z,11.43
2019-05-30T17:01:19.730Z,13.40
2019-05-30T17:03:48.184Z,14.68
2019-05-30T17:06:18.018Z,10.78
2019-05-30T17:08:48.178Z,11.83
2019-05-30T17:11:17.321Z,11.95
2019-05-30T17:13:45.934Z,10.90
2019-05-30T17:16:15.893Z,12.58
2019-05-30T17:18:44.445Z,10.45
2019-05-30T17:21:12.701Z,11.78
2019-05-30T17:23:40.282Z,11.30
2019-05-30T17:26:11.925Z,12.60
2019-05-30T17:28:39.556Z,10.90
2019-05-30T17:31:06.914Z,12.00
2019-05-30T17:33:34.485Z,12.78
2019-05-30T17:36:02.093Z,13.10
2019-05-30T17:38:29.655Z,13.13
2019-05-30T17:40:57.371Z,12.75
2019-05-30T17:43:25.149Z,11.65
2019-05-30T17:45:55.011Z,12.03
2019-05-30T17:48:23.569Z,11.45
2019-05-30T17:50:51.226Z,13.62
2019-05-30T17:53:19.624Z,13.38
2019-05-30T17:55:47.023Z,13.83
2019-05-30T17:58:14.527Z,13.58
2019-05-30T18:00:41.984Z,13.95
2019-05-30T18:03:09.773Z,13.93
2019-05-30T18:05:38.371Z,14.00
2019-05-30T18:08:05.903Z,15.20
2019-05-30T18:10:34.380Z,15.70
2019-05-30T18:13:02.606Z,14.73
2019-05-30T18:15:32.359Z,15.38
2019-05-30T18:18:00.055Z,33.45
2019-05-30T18:20:27.437Z,14.85
2019-05-30T18:22:55.345Z,32.30
2019-05-30T18:25:23.594Z,22.70
2019-05-30T18:27:51.142Z,18.40
2019-05-30T18:30:19.047Z,15.63
2019-05-30T18:32:46.115Z,14.00
2019-05-30T18:35:13.889Z,15.75
2019-05-30T18:37:41.117Z,18.52
2019-05-30T18:40:09.055Z,15.30
2019-05-30T18:42:36.495Z,18.98
2019-05-30T18:45:04.435Z,16.87
2019-05-30T18:47:31.794Z,19.50
2019-05-30T18:49:59.006Z,16.62
2019-05-30T18:52:26.477Z,14.58
2019-05-30T18:54:53.874Z,15.75
2019-05-30T18:57:21.174Z,15.25
2019-05-30T18:59:49.354Z,13.53
2019-05-30T19:02:18.566Z,13.00
2019-05-30T19:04:45.954Z,14.85
2019-05-30T19:07:14.617Z,15.05
2019-05-30T19:09:42.017Z,14.98
2019-05-30T19:12:09.517Z,16.15
2019-05-30T19:14:37.753Z,13.10
2019-05-30T19:17:04.897Z,14.80
2019-05-30T19:19:32.303Z,13.10
2019-05-30T19:22:00.455Z,13.40
2019-05-30T19:24:28.184Z,12.70
2019-05-30T19:26:56.062Z,13.72
2019-05-30T19:29:23.103Z,13.75
2019-05-30T19:31:50.123Z,12.35
2019-05-30T19:34:17.783Z,12.63
2019-05-30T19:36:45.068Z,14.05
2019-05-30T19:39:12.945Z,13.45
2019-05-30T19:41:52.569Z,13.43
2019-05-30T19:44:08.900Z,13.88
2019-05-30T19:46:36.245Z,12.90
2019-05-30T19:49:03.561Z,14.03
2019-05-30T19:51:31.502Z,13.80
2019-05-30T19:53:59.310Z,12.00
2019-05-30T19:56:26.957Z,14.87
2019-05-30T19:58:54.351Z,15.35
2019-05-30T20:01:22.077Z,17.00
2019-05-30T20:03:50.234Z,15.60
2019-05-30T20:06:17.227Z,13.45
2019-05-30T20:08:55.065Z,15.53
2019-05-30T20:11:14.019Z,14.75
2019-05-30T20:13:41.314Z,13.95
2019-05-30T20:16:08.693Z,14.50
2019-05-30T20:18:35.719Z,15.50
2019-05-30T20:21:02.867Z,14.25
2019-05-30T20:23:30.327Z,13.83
2019-05-30T20:25:57.958Z,15.38
2019-05-30T20:28:24.930Z,13.85
2019-05-30T20:30:52.236Z,15.83
2019-05-30T20:33:19.246Z,13.88
2019-05-30T20:35:46.947Z,13.15
2019-05-30T20:38:14.063Z,14.85
2019-05-30T20:40:41.286Z,14.38
2019-05-30T20:43:08.471Z,13.48
2019-05-30T20:45:38.971Z,13.62
2019-05-30T20:48:04.600Z,13.15
2019-05-30T20:50:31.656Z,13.15
2019-05-30T20:52:59.031Z,13.22
2019-05-30T20:55:26.109Z,12.65
2019-05-30T20:57:53.243Z,13.03
2019-05-30T21:00:25.253Z,12.93
2019-05-30T21:02:52.524Z,13.40
2019-05-30T21:05:19.719Z,13.93
2019-05-30T21:07:47.648Z,12.20
2019-05-30T21:10:15.305Z,12.18
2019-05-30T21:12:46.976Z,13.05
2019-05-30T21:15:13.403Z,13.32
2019-05-30T21:17:41.721Z,13.53
2019-05-30T21:20:11.482Z,13.90
2019-05-30T21:22:40.107Z,13.30
2019-05-30T21:25:07.615Z,15.23
2019-05-30T21:27:36.880Z,13.98
2019-05-30T21:30:04.358Z,13.85
2019-05-30T21:32:31.660Z,14.13
2019-05-30T21:34:58.746Z,15.10
2019-05-30T21:37:27.928Z,15.03
2019-05-30T21:39:55.591Z,15.55
2019-05-30T21:42:24.279Z,16.65
2019-05-30T21:45:00.161Z,14.80
2019-05-30T21:47:27.500Z,16.12
2019-05-30T21:49:55.131Z,16.57
2019-05-30T21:52:22.762Z,18.85
2019-05-30T21:54:50.208Z,15.75
2019-05-30T21:57:17.267Z,15.30
2019-05-30T21:59:44.359Z,16.05
2019-05-30T22:02:11.435Z,16.10
2019-05-30T22:04:40.475Z,15.93
2019-05-30T22:07:07.690Z,14.50
2019-05-30T22:09:34.980Z,14.60
2019-05-30T22:12:02.281Z,14.33
2019-05-30T22:14:29.906Z,14.15
2019-05-30T22:16:56.956Z,14.53
2019-05-30T22:19:25.027Z,15.10
2019-05-30T22:21:52.617Z,14.18
2019-05-30T22:24:19.817Z,15.13
2019-05-30T22:26:46.891Z,13.22
2019-05-30T22:29:17.631Z,12.20
2019-05-30T22:31:46.487Z,13.72
2019-05-30T22:34:13.618Z,14.13
2019-05-30T22:36:40.611Z,15.30
2019-05-30T22:39:09.029Z,13.95
2019-05-30T22:41:36.285Z,14.98
2019-05-30T22:44:03.550Z,14.63
2019-05-30T22:46:30.707Z,13.30
2019-05-30T22:48:58.227Z,14.23
2019-05-30T22:51:27.515Z,14.55
2019-05-30T22:53:54.698Z,14.23
2019-05-30T22:56:21.991Z,12.80
2019-05-30T22:58:50.154Z,13.88
2019-05-30T23:01:17.403Z,13.25
2019-05-30T23:03:45.060Z,13.45
2019-05-30T23:06:12.421Z,13.22
2019-05-30T23:08:40.535Z,14.40
2019-05-30T23:11:07.913Z,14.98
2019-05-30T23:13:40.379Z,15.83
2019-05-30T23:16:03.923Z,14.85
2019-05-30T23:18:31.396Z,15.20
2019-05-30T23:20:58.851Z,15.25
2019-05-30T23:23:26.000Z,14.87
2019-05-30T23:25:53.515Z,16.05
2019-05-30T23:28:20.507Z,16.32
2019-05-30T23:30:47.863Z,16.12
2019-05-30T23:33:15.910Z,14.85
2019-05-30T23:35:42.920Z,15.90
2019-05-30T23:38:10.006Z,15.13
2019-05-30T23:40:37.380Z,15.85
2019-05-30T23:43:04.464Z,14.65
2019-05-30T23:45:31.475Z,16.15
2019-05-30T23:47:59.784Z,16.80
2019-05-30T23:50:26.972Z,15.50
2019-05-30T23:52:54.126Z,16.42
2019-05-30T23:55:21.616Z,16.73
2019-05-30T23:57:50.250Z,15.65
